createdAt,value
2022-12-18T00:01:21.269Z,-10.00
2022-12-18T00:03:26.506Z,-10.00
2022-12-18T00:05:32.032Z,-10.00
2022-12-18T00:07:37.679Z,-10.00
2022-12-18T00:09:43.212Z,-10.10
2022-12-18T00:11:50.775Z,-10.20
2022-12-18T00:13:59.491Z,-10.20
2022-12-18T00:16:07.452Z,-10.20
2022-12-18T00:18:16.058Z,-10.20
2022-12-18T00:20:27.108Z,-10.20
2022-12-18T00:22:32.189Z,-10.20
2022-12-18T00:24:37.212Z,-10.20
2022-12-18T00:26:43.357Z,-10.20
2022-12-18T00:28:53.486Z,-10.30
2022-12-18T00:31:04.822Z,-10.30
2022-12-18T00:33:09.910Z,-10.20
2022-12-18T00:35:14.895Z,-10.30
2022-12-18T00:37:20.402Z,-10.20
2022-12-18T00:39:29.805Z,-10.30
2022-12-18T00:41:48.294Z,-10.20
2022-12-18T00:43:55.924Z,-10.20
2022-12-18T00:46:00.906Z,-10.20
2022-12-18T00:48:06.724Z,-10.30
2022-12-18T00:50:13.733Z,-10.30
2022-12-18T00:52:19.976Z,-10.40
2022-12-18T00:54:25.269Z,-10.40
2022-12-18T00:56:30.597Z,-10.40
2022-12-18T00:58:36.352Z,-10.30
2022-12-18T01:00:45.017Z,-10.30
2022-12-18T01:02:50.568Z,-10.30
2022-12-18T01:04:56.378Z,-10.30
2022-12-18T01:07:01.452Z,-10.30
2022-12-18T01:09:07.295Z,-10.30
2022-12-18T01:11:22.247Z,-10.30
2022-12-18T01:13:27.248Z,-10.30
2022-12-18T01:15:32.267Z,-10.30
2022-12-18T01:17:39.962Z,-10.40
2022-12-18T01:19:44.767Z,-10.40
2022-12-18T01:21:49.836Z,-10.40
2022-12-18T01:23:59.413Z,-10.50
2022-12-18T01:26:10.205Z,-10.40
2022-12-18T01:28:15.218Z,-10.40
2022-12-18T01:30:20.460Z,-10.40
2022-12-18T01:32:26.017Z,-10.40
2022-12-18T01:34:35.387Z,-10.50
2022-12-18T01:36:43.029Z,-10.40
2022-12-18T01:38:49.402Z,-10.40
2022-12-18T01:41:01.317Z,-10.90
2022-12-18T01:43:06.560Z,-10.70
2022-12-18T01:45:28.609Z,-10.60
2022-12-18T01:47:40.229Z,-10.60
2022-12-18T01:49:48.211Z,-10.60
2022-12-18T01:51:53.538Z,-10.60
2022-12-18T01:53:58.879Z,-10.60
2022-12-18T01:56:04.123Z,-10.50
2022-12-18T01:58:09.403Z,-10.60
2022-12-18T02:00:21.047Z,-10.60
2022-12-18T02:02:26.579Z,-10.60
2022-12-18T02:04:32.438Z,-10.50
2022-12-18T02:06:45.490Z,-10.60
2022-12-18T02:09:02.687Z,-10.60
2022-12-18T02:11:15.607Z,-10.70
2022-12-18T02:13:31.663Z,-10.70
2022-12-18T02:15:46.954Z,-10.80
2022-12-18T02:17:59.185Z,-10.70
2022-12-18T02:20:17.621Z,-10.70
2022-12-18T02:22:40.173Z,-10.80
2022-12-18T02:24:54.171Z,-11.00
2022-12-18T02:27:07.048Z,-11.10
2022-12-18T02:29:19.552Z,-11.10
2022-12-18T02:31:31.943Z,-11.00
2022-12-18T02:33:39.792Z,-10.80
2022-12-18T02:35:48.236Z,-10.80
2022-12-18T02:37:54.216Z,-10.80
2022-12-18T02:40:02.368Z,-10.80
2022-12-18T02:42:13.005Z,-10.70
2022-12-18T02:44:18.823Z,-10.70
2022-12-18T02:46:32.037Z,-10.80
2022-12-18T02:48:39.839Z,-10.80
2022-12-18T02:50:56.997Z,-10.80
2022-12-18T02:53:15.170Z,-10.80
2022-12-18T02:55:29.646Z,-10.80
2022-12-18T02:57:49.918Z,-10.80
2022-12-18T03:00:07.597Z,-10.90
2022-12-18T03:02:27.517Z,-10.90
2022-12-18T03:04:41.199Z,-10.90
2022-12-18T03:06:52.527Z,-11.00
2022-12-18T03:09:04.676Z,-11.00
2022-12-18T03:11:13.878Z,-10.90
2022-12-18T03:13:26.685Z,-11.00
2022-12-18T03:15:37.467Z,-11.00
2022-12-18T03:17:54.230Z,-11.00
2022-12-18T03:20:11.334Z,-11.00
2022-12-18T03:22:17.127Z,-11.00
2022-12-18T03:24:30.305Z,-11.00
2022-12-18T03:26:37.262Z,-11.00
2022-12-18T03:28:53.762Z,-11.10
2022-12-18T03:31:03.325Z,-11.10
2022-12-18T03:33:14.273Z,-11.30
2022-12-18T03:35:27.975Z,-11.60
2022-12-18T03:37:33.720Z,-11.90
2022-12-18T03:39:39.915Z,-11.60
2022-12-18T03:41:49.423Z,-11.60
2022-12-18T03:44:33.581Z,-11.40
2022-12-18T03:46:51.041Z,-11.30
2022-12-18T03:49:02.177Z,-11.30
2022-12-18T03:51:13.928Z,-11.50
2022-12-18T03:53:30.347Z,-11.40
2022-12-18T03:55:38.472Z,-11.60
2022-12-18T03:57:47.094Z,-11.50
2022-12-18T04:00:00.964Z,-11.40
2022-12-18T04:02:21.015Z,-11.30
2022-12-18T04:04:28.405Z,-11.20
2022-12-18T04:06:34.504Z,-11.20
2022-12-18T04:08:41.016Z,-11.30
2022-12-18T04:10:49.347Z,-11.40
2022-12-18T04:12:54.384Z,-11.40
2022-12-18T04:15:02.476Z,-11.30
2022-12-18T04:17:08.447Z,-11.40
2022-12-18T04:19:13.547Z,-11.40
2022-12-18T04:21:21.103Z,-11.40
2022-12-18T04:23:28.216Z,-11.40
2022-12-18T04:25:36.326Z,-11.40
2022-12-18T04:27:46.104Z,-11.40
2022-12-18T04:29:52.869Z,-11.40
2022-12-18T04:32:00.525Z,-11.40
2022-12-18T04:34:08.573Z,-11.50
2022-12-18T04:36:19.664Z,-11.50
2022-12-18T04:38:26.191Z,-11.50
2022-12-18T04:40:41.145Z,-11.50
2022-12-18T04:42:53.840Z,-11.50
2022-12-18T04:44:59.564Z,-11.50
2022-12-18T04:47:08.493Z,-11.50
2022-12-18T04:49:14.119Z,-11.50
2022-12-18T04:51:24.722Z,-11.50
2022-12-18T04:53:32.364Z,-11.50
2022-12-18T04:55:37.754Z,-11.50
2022-12-18T04:57:43.062Z,-11.50
2022-12-18T04:59:48.423Z,-11.50
2022-12-18T05:01:53.488Z,-11.60
2022-12-18T05:04:01.681Z,-11.60
2022-12-18T05:06:07.559Z,-11.60
2022-12-18T05:08:12.999Z,-11.60
2022-12-18T05:10:18.039Z,-11.60
2022-12-18T05:12:27.986Z,-11.50
2022-12-18T05:14:33.407Z,-11.60
2022-12-18T05:16:38.394Z,-11.60
2022-12-18T05:18:44.705Z,-11.70
2022-12-18T05:20:53.624Z,-11.60
2022-12-18T05:22:59.591Z,-11.70
2022-12-18T05:25:05.484Z,-11.70
2022-12-18T05:27:10.890Z,-12.20
2022-12-18T05:29:15.864Z,-12.20
2022-12-18T05:31:21.104Z,-12.10
2022-12-18T05:33:28.289Z,-11.90
2022-12-18T05:35:33.583Z,-11.80
2022-12-18T05:37:43.441Z,-11.80
2022-12-18T05:39:48.548Z,-11.80
2022-12-18T05:41:53.630Z,-11.90
2022-12-18T05:43:58.779Z,-12.10
2022-12-18T05:46:09.019Z,-12.20
2022-12-18T05:48:14.991Z,-12.20
2022-12-18T05:50:20.826Z,-12.10
2022-12-18T05:52:26.218Z,-12.00
2022-12-18T05:54:34.614Z,-11.90
2022-12-18T05:56:42.947Z,-11.90
2022-12-18T05:58:51.132Z,-11.90
2022-12-18T06:00:56.442Z,-11.90
2022-12-18T06:03:02.108Z,-11.90
2022-12-18T06:05:08.415Z,-11.90
2022-12-18T06:07:14.611Z,-11.90
2022-12-18T06:09:20.222Z,-11.80
2022-12-18T06:11:30.087Z,-11.80
2022-12-18T06:13:35.497Z,-11.80
2022-12-18T06:15:41.521Z,-11.80
2022-12-18T06:17:46.467Z,-11.90
2022-12-18T06:19:51.913Z,-11.80
2022-12-18T06:21:58.787Z,-11.90
2022-12-18T06:24:04.476Z,-11.80
2022-12-18T06:26:13.331Z,-11.90
2022-12-18T06:28:20.896Z,-11.80
2022-12-18T06:30:26.131Z,-11.80
2022-12-18T06:32:31.487Z,-11.90
2022-12-18T06:34:36.542Z,-12.20
2022-12-18T06:36:41.847Z,-12.60
2022-12-18T06:38:48.329Z,-12.80
2022-12-18T06:40:53.211Z,-12.90
2022-12-18T06:42:58.687Z,-12.80
2022-12-18T06:45:07.708Z,-12.60
2022-12-18T06:47:13.158Z,-12.50
2022-12-18T06:49:18.347Z,-12.40
2022-12-18T06:51:25.096Z,-12.70
2022-12-18T06:53:30.593Z,-12.50
2022-12-18T06:55:36.148Z,-12.40
2022-12-18T06:57:41.846Z,-12.30
2022-12-18T06:59:46.783Z,-12.30
2022-12-18T07:01:54.795Z,-12.20
2022-12-18T07:04:01.699Z,-12.20
2022-12-18T07:06:07.825Z,-12.20
2022-12-18T07:08:12.743Z,-12.20
2022-12-18T07:10:17.724Z,-12.20
2022-12-18T07:12:22.832Z,-12.10
2022-12-18T07:14:28.144Z,-12.20
2022-12-18T07:16:33.582Z,-12.20
2022-12-18T07:18:41.192Z,-12.10
2022-12-18T07:20:46.249Z,-12.20
2022-12-18T07:22:56.227Z,-12.20
2022-12-18T07:25:01.441Z,-12.20
2022-12-18T07:27:06.608Z,-12.20
2022-12-18T07:29:13.818Z,-12.10
2022-12-18T07:31:23.175Z,-12.10
2022-12-18T07:33:28.507Z,-12.10
2022-12-18T07:35:37.178Z,-12.20
2022-12-18T07:37:42.329Z,-12.20
2022-12-18T07:39:48.348Z,-12.20
2022-12-18T07:42:07.300Z,-12.20
2022-12-18T07:44:14.123Z,-12.20
2022-12-18T07:46:20.399Z,-12.20
2022-12-18T07:48:25.795Z,-12.10
2022-12-18T07:50:30.744Z,-12.10
2022-12-18T07:52:38.343Z,-12.10
2022-12-18T07:54:43.558Z,-12.10
2022-12-18T07:56:48.508Z,-12.10
2022-12-18T07:58:54.226Z,-12.10
2022-12-18T08:01:07.994Z,-12.00
2022-12-18T08:03:13.286Z,-12.00
2022-12-18T08:05:18.641Z,-12.00
2022-12-18T08:07:23.620Z,-11.90
2022-12-18T08:09:31.791Z,-11.90
2022-12-18T08:11:37.045Z,-11.90
2022-12-18T08:13:42.459Z,-12.00
2022-12-18T08:15:47.622Z,-11.90
2022-12-18T08:17:52.610Z,-11.90
2022-12-18T08:19:57.555Z,-11.90
2022-12-18T08:22:03.064Z,-11.80
2022-12-18T08:24:09.448Z,-11.80
2022-12-18T08:26:17.886Z,-11.70
2022-12-18T08:28:24.011Z,-11.70
2022-12-18T08:30:28.966Z,-11.70
2022-12-18T08:32:34.404Z,-11.70
2022-12-18T08:34:40.563Z,-11.70
2022-12-18T08:36:45.552Z,-11.60
2022-12-18T08:38:51.212Z,-11.60
2022-12-18T08:41:03.109Z,-11.50
2022-12-18T08:43:25.454Z,-11.50
2022-12-18T08:45:31.479Z,-11.50
2022-12-18T08:47:36.421Z,-11.40
2022-12-18T08:49:41.697Z,-11.40
2022-12-18T08:51:47.138Z,-11.40
2022-12-18T08:53:52.387Z,-11.30
2022-12-18T08:55:57.705Z,-11.30
2022-12-18T08:58:02.615Z,-11.30
2022-12-18T09:00:15.474Z,-11.20
2022-12-18T09:02:20.945Z,-11.20
2022-12-18T09:04:26.227Z,-11.20
2022-12-18T09:06:31.233Z,-11.20
2022-12-18T09:08:36.212Z,-11.10
2022-12-18T09:10:46.506Z,-11.10
2022-12-18T09:12:51.604Z,-11.00
2022-12-18T09:14:57.311Z,-11.00
2022-12-18T09:17:05.237Z,-10.90
2022-12-18T09:19:10.403Z,-10.90
2022-12-18T09:21:18.575Z,-10.90
2022-12-18T09:23:24.273Z,-10.80
2022-12-18T09:25:32.833Z,-10.80
2022-12-18T09:27:38.081Z,-10.70
2022-12-18T09:29:43.551Z,-10.70
2022-12-18T09:31:48.975Z,-10.70
2022-12-18T09:33:59.312Z,-10.60
2022-12-18T09:36:07.972Z,-10.50
2022-12-18T09:38:17.944Z,-10.50
2022-12-18T09:40:27.811Z,-10.50
2022-12-18T09:42:32.987Z,-10.40
2022-12-18T09:44:45.899Z,-10.40
2022-12-18T09:47:02.267Z,-10.40
2022-12-18T09:49:18.352Z,-10.40
2022-12-18T09:51:30.154Z,-10.30
2022-12-18T09:53:42.323Z,-10.30
2022-12-18T09:55:50.417Z,-10.20
2022-12-18T09:58:05.009Z,-10.20
2022-12-18T10:00:23.618Z,-10.20
2022-12-18T10:02:33.913Z,-10.10
2022-12-18T10:04:41.667Z,-10.10
2022-12-18T10:06:55.732Z,-10.00
2022-12-18T10:09:13.046Z,-10.00
2022-12-18T10:11:40.988Z,-9.90
2022-12-18T10:13:53.194Z,-9.80
2022-12-18T10:16:13.389Z,-9.80
2022-12-18T10:18:33.798Z,-9.80
2022-12-18T10:20:47.805Z,-9.70
2022-12-18T10:23:03.264Z,-9.70
2022-12-18T10:25:22.357Z,-9.60
2022-12-18T10:27:29.930Z,-9.60
2022-12-18T10:29:36.015Z,-9.50
2022-12-18T10:31:41.130Z,-9.50
2022-12-18T10:33:46.197Z,-9.50
2022-12-18T10:35:56.241Z,-9.40
2022-12-18T10:38:10.620Z,-9.40
2022-12-18T10:40:22.627Z,-9.40
2022-12-18T10:42:28.194Z,-9.40
2022-12-18T10:44:33.288Z,-9.30
2022-12-18T10:46:40.434Z,-9.30
2022-12-18T10:48:58.024Z,-9.30
2022-12-18T10:51:12.572Z,-9.20
2022-12-18T10:53:25.302Z,-9.10
2022-12-18T10:55:36.773Z,-9.10
2022-12-18T10:57:44.046Z,-9.00
2022-12-18T10:59:58.344Z,-9.00
2022-12-18T11:02:03.794Z,-9.00
2022-12-18T11:04:13.087Z,-8.90
2022-12-18T11:06:26.529Z,-8.90
2022-12-18T11:08:31.462Z,-8.80
2022-12-18T11:10:41.927Z,-8.80
2022-12-18T11:12:46.981Z,-8.60
2022-12-18T11:14:54.648Z,-8.60
2022-12-18T11:19:37.147Z,-8.50
2022-12-18T11:21:47.006Z,-8.50
2022-12-18T11:23:55.936Z,-8.40
2022-12-18T11:26:04.865Z,-8.30
2022-12-18T11:28:30.650Z,-8.30
2022-12-18T11:30:41.371Z,-8.20
2022-12-18T11:32:49.095Z,-8.10
2022-12-18T11:35:00.914Z,-8.10
2022-12-18T11:37:08.821Z,-8.00
2022-12-18T11:39:21.360Z,-8.00
2022-12-18T11:41:46.180Z,-8.00
2022-12-18T11:43:59.408Z,-7.80
2022-12-18T11:46:16.139Z,-7.70
2022-12-18T11:48:30.882Z,-7.60
2022-12-18T11:50:50.032Z,-7.60
2022-12-18T11:53:02.859Z,-7.60
2022-12-18T11:55:18.241Z,-7.40
2022-12-18T11:57:38.699Z,-7.40
2022-12-18T11:59:53.812Z,-7.30
2022-12-18T12:02:07.669Z,-7.30
2022-12-18T12:04:41.635Z,-7.30
2022-12-18T12:07:03.320Z,-7.10
2022-12-18T12:09:24.244Z,-7.20
2022-12-18T12:11:41.105Z,-7.10
2022-12-18T12:13:59.303Z,-7.10
2022-12-18T12:16:21.638Z,-7.10
2022-12-18T12:18:41.451Z,-7.00
2022-12-18T12:20:55.758Z,-7.00
2022-12-18T12:23:17.688Z,-7.00
2022-12-18T12:25:38.964Z,-6.90
2022-12-18T12:27:54.745Z,-6.70
2022-12-18T12:30:10.542Z,-6.80
2022-12-18T12:32:30.892Z,-6.80
2022-12-18T12:34:47.436Z,-6.80
2022-12-18T12:37:16.354Z,-6.80
2022-12-18T12:39:29.254Z,-6.80
2022-12-18T12:41:52.070Z,-6.70
2022-12-18T12:44:02.533Z,-6.70
2022-12-18T12:46:10.479Z,-6.60
2022-12-18T12:48:24.446Z,-6.60
2022-12-18T12:50:30.732Z,-6.50
2022-12-18T12:52:43.626Z,-6.50
2022-12-18T12:54:50.253Z,-6.50
2022-12-18T12:57:03.325Z,-6.40
2022-12-18T12:59:19.783Z,-6.40
2022-12-18T13:01:36.181Z,-6.40
2022-12-18T13:03:56.669Z,-6.40
2022-12-18T13:06:09.700Z,-6.40
2022-12-18T13:08:27.458Z,-6.30
2022-12-18T13:10:39.626Z,-6.30
2022-12-18T13:12:57.334Z,-6.30
2022-12-18T13:15:23.412Z,-6.30
2022-12-18T13:17:33.748Z,-6.20
2022-12-18T13:19:39.548Z,-6.20
2022-12-18T13:21:45.298Z,-6.20
2022-12-18T13:23:51.120Z,-6.20
2022-12-18T13:25:57.816Z,-6.20
2022-12-18T13:28:17.296Z,-6.20
2022-12-18T13:30:49.696Z,-6.20
2022-12-18T13:36:34.666Z,-6.20
2022-12-18T13:38:42.405Z,-6.20
2022-12-18T13:41:03.318Z,-6.20
2022-12-18T13:43:24.771Z,-6.10
2022-12-18T13:45:49.102Z,-6.20
2022-12-18T13:47:54.820Z,-6.20
2022-12-18T13:50:03.360Z,-6.10
2022-12-18T13:52:24.159Z,-6.10
2022-12-18T13:54:36.786Z,-6.10
2022-12-18T13:56:49.252Z,-6.10
2022-12-18T13:59:24.713Z,-6.10
2022-12-18T14:01:30.392Z,-6.00
2022-12-18T14:03:35.536Z,-6.00
2022-12-18T14:05:44.731Z,-6.00
2022-12-18T14:07:50.395Z,-6.00
2022-12-18T14:12:42.992Z,-6.00
2022-12-18T14:14:53.514Z,-6.00
2022-12-18T14:17:00.717Z,-6.00
2022-12-18T14:19:14.931Z,-6.00
2022-12-18T14:21:33.462Z,-6.00
2022-12-18T14:23:40.250Z,-6.00
2022-12-18T14:25:50.694Z,-6.00
2022-12-18T14:28:06.060Z,-6.00
2022-12-18T14:30:31.632Z,-5.90
2022-12-18T14:32:36.718Z,-5.90
2022-12-18T14:34:42.225Z,-5.90
2022-12-18T14:36:57.183Z,-5.90
2022-12-18T14:39:03.128Z,-5.90
2022-12-18T14:41:13.880Z,-5.90
2022-12-18T14:43:18.928Z,-6.00
2022-12-18T14:45:43.390Z,-6.10
2022-12-18T14:47:49.208Z,-6.00
2022-12-18T14:49:54.868Z,-5.90
2022-12-18T14:52:05.267Z,-6.00
2022-12-18T14:54:20.614Z,-6.00
2022-12-18T14:56:28.351Z,-6.10
2022-12-18T14:58:33.512Z,-6.00
2022-12-18T15:00:45.992Z,-6.00
2022-12-18T15:02:56.259Z,-6.00
2022-12-18T15:05:11.292Z,-6.10
2022-12-18T15:07:23.211Z,-6.10
2022-12-18T15:09:30.012Z,-6.10
2022-12-18T15:11:50.068Z,-6.10
2022-12-18T15:13:55.071Z,-6.10
2022-12-18T15:16:02.290Z,-6.10
2022-12-18T15:18:16.618Z,-6.10
2022-12-18T15:20:22.176Z,-6.20
2022-12-18T15:22:32.725Z,-6.20
2022-12-18T15:24:37.801Z,-6.20
2022-12-18T15:26:42.804Z,-6.20
2022-12-18T15:28:50.818Z,-6.20
2022-12-18T15:31:09.761Z,-6.20
2022-12-18T15:33:30.375Z,-6.20
2022-12-18T15:35:35.503Z,-6.20
2022-12-18T15:37:43.746Z,-6.20
2022-12-18T15:39:48.706Z,-6.20
2022-12-18T15:42:06.632Z,-6.30
2022-12-18T15:44:27.297Z,-6.20
2022-12-18T15:46:32.551Z,-6.30
2022-12-18T15:48:42.722Z,-6.30
2022-12-18T15:50:48.393Z,-6.30
2022-12-18T15:52:58.541Z,-6.20
2022-12-18T15:55:16.086Z,-6.30
2022-12-18T15:57:27.602Z,-6.30
2022-12-18T15:59:32.655Z,-6.20
2022-12-18T16:01:42.307Z,-6.30
2022-12-18T16:03:48.203Z,-6.30
2022-12-18T16:05:53.823Z,-6.30
2022-12-18T16:08:02.073Z,-6.30
2022-12-18T16:10:07.980Z,-6.30
2022-12-18T16:12:21.004Z,-6.30
2022-12-18T16:14:28.893Z,-6.40
2022-12-18T16:16:33.727Z,-6.30
2022-12-18T16:18:38.786Z,-6.30
2022-12-18T16:20:44.284Z,-6.30
2022-12-18T16:22:51.270Z,-6.30
2022-12-18T16:25:00.928Z,-6.40
2022-12-18T16:27:06.584Z,-6.30
2022-12-18T16:29:11.766Z,-6.30
2022-12-18T16:31:17.567Z,-6.30
2022-12-18T16:33:22.960Z,-6.30
2022-12-18T16:35:29.619Z,-6.20
2022-12-18T16:37:34.618Z,-6.30
2022-12-18T16:39:42.683Z,-6.30
2022-12-18T16:41:50.825Z,-6.30
2022-12-18T16:43:55.810Z,-6.20
2022-12-18T16:46:03.013Z,-6.20
2022-12-18T16:48:08.908Z,-6.10
2022-12-18T16:50:15.393Z,-6.20
2022-12-18T16:52:20.683Z,-6.10
2022-12-18T16:54:26.238Z,-6.20
2022-12-18T16:56:31.448Z,-6.10
2022-12-18T16:58:42.122Z,-6.20
2022-12-18T17:00:48.032Z,-6.10
2022-12-18T17:02:55.905Z,-6.10
2022-12-18T17:05:01.946Z,-6.00
2022-12-18T17:07:06.968Z,-5.90
2022-12-18T17:09:16.820Z,-5.80
2022-12-18T17:11:22.610Z,-5.40
2022-12-18T17:13:30.310Z,-5.10
2022-12-18T17:15:40.757Z,-5.00
2022-12-18T17:17:45.773Z,-4.90
2022-12-18T17:19:50.760Z,-4.90
2022-12-18T17:21:56.109Z,-4.50
2022-12-18T17:24:03.424Z,-4.30
2022-12-18T17:26:10.904Z,-4.40
2022-12-18T17:28:16.496Z,-4.40
2022-12-18T17:30:21.787Z,-4.40
2022-12-18T17:32:29.792Z,-4.50
2022-12-18T17:34:34.807Z,-4.50
2022-12-18T17:36:41.380Z,-4.00
2022-12-18T17:38:52.609Z,-4.00
2022-12-18T17:40:57.811Z,-4.10
2022-12-18T17:43:02.799Z,-4.30
2022-12-18T17:45:09.812Z,-3.90
2022-12-18T17:47:15.030Z,-4.00
2022-12-18T17:49:22.617Z,-4.10
2022-12-18T17:51:28.278Z,-4.10
2022-12-18T17:53:33.958Z,-4.20
2022-12-18T17:55:39.127Z,-4.30
2022-12-18T17:57:44.104Z,-4.30
2022-12-18T17:59:49.115Z,-4.20
2022-12-18T18:01:54.320Z,-4.30
2022-12-18T18:04:02.078Z,-4.30
2022-12-18T18:06:10.916Z,-4.20
2022-12-18T18:08:16.221Z,-4.10
2022-12-18T18:10:21.387Z,-4.10
2022-12-18T18:12:38.938Z,-3.90
2022-12-18T18:14:43.974Z,-3.90
2022-12-18T18:16:52.050Z,-3.90
2022-12-18T18:18:59.178Z,-3.70
2022-12-18T18:21:11.730Z,-3.70
2022-12-18T18:23:18.547Z,-3.70
2022-12-18T18:25:23.550Z,-3.80
2022-12-18T18:27:31.654Z,-3.80
2022-12-18T18:29:40.473Z,-3.80
2022-12-18T18:31:45.738Z,-3.80
2022-12-18T18:33:50.812Z,-3.80
2022-12-18T18:35:55.806Z,-3.80
2022-12-18T18:38:04.436Z,-3.90
2022-12-18T18:40:11.403Z,-3.80
2022-12-18T18:42:16.445Z,-3.80
2022-12-18T18:44:26.040Z,-3.80
2022-12-18T18:46:31.582Z,-3.60
2022-12-18T18:48:41.216Z,-3.70
2022-12-18T18:50:59.355Z,-3.80
2022-12-18T18:53:06.956Z,-3.70
2022-12-18T18:55:16.579Z,-3.70
2022-12-18T18:57:30.907Z,-3.70
2022-12-18T18:59:35.905Z,-3.80
2022-12-18T19:01:41.062Z,-3.70
2022-12-18T19:03:47.013Z,-3.70
2022-12-18T19:05:55.942Z,-3.70
2022-12-18T19:08:00.955Z,-3.70
2022-12-18T19:10:11.570Z,-3.80
2022-12-18T19:12:29.579Z,-3.80
2022-12-18T19:14:34.392Z,-3.80
2022-12-18T19:16:40.550Z,-3.80
2022-12-18T19:18:46.811Z,-3.80
2022-12-18T19:21:00.703Z,-3.90
2022-12-18T19:23:05.689Z,-3.80
2022-12-18T19:25:13.717Z,-3.80
2022-12-18T19:27:19.587Z,-3.80
2022-12-18T19:29:24.563Z,-3.80
2022-12-18T19:31:36.152Z,-3.80
2022-12-18T19:33:45.466Z,-3.90
2022-12-18T19:35:50.849Z,-3.80
2022-12-18T19:37:56.049Z,-3.80
2022-12-18T19:40:02.619Z,-3.70
2022-12-18T19:42:21.441Z,-3.70
2022-12-18T19:44:30.558Z,-3.70
2022-12-18T19:46:36.198Z,-3.60
2022-12-18T19:48:47.587Z,-3.60
2022-12-18T19:50:52.910Z,-3.70
2022-12-18T19:52:58.523Z,-3.70
2022-12-18T19:55:03.617Z,-3.70
2022-12-18T19:57:11.483Z,-3.80
2022-12-18T19:59:19.139Z,-3.80
2022-12-18T20:01:26.900Z,-3.80
2022-12-18T20:03:42.888Z,-3.80
2022-12-18T20:05:50.465Z,-3.80
2022-12-18T20:07:55.604Z,-3.80
2022-12-18T20:10:08.452Z,-3.80
2022-12-18T20:12:14.367Z,-3.90
2022-12-18T20:14:22.966Z,-3.70
2022-12-18T20:16:28.858Z,-3.80
2022-12-18T20:18:34.731Z,-3.80
2022-12-18T20:20:40.193Z,-3.80
2022-12-18T20:22:45.561Z,-3.80
2022-12-18T20:24:50.918Z,-3.80
2022-12-18T20:26:56.363Z,-3.80
2022-12-18T20:29:01.671Z,-3.80
2022-12-18T20:31:10.517Z,-3.80
2022-12-18T20:33:19.548Z,-3.80
2022-12-18T20:35:28.579Z,-3.80
2022-12-18T20:37:34.325Z,-3.70
2022-12-18T20:39:42.561Z,-3.70
2022-12-18T20:41:49.901Z,-3.70
2022-12-18T20:43:55.139Z,-3.70
2022-12-18T20:46:05.526Z,-3.50
2022-12-18T20:48:13.283Z,-3.40
2022-12-18T20:50:18.276Z,-3.40
2022-12-18T20:52:23.622Z,-3.20
2022-12-18T20:54:29.967Z,-3.10
2022-12-18T20:56:35.304Z,-3.00
2022-12-18T20:58:41.477Z,-3.10
2022-12-18T21:00:46.518Z,-3.20
2022-12-18T21:02:51.975Z,-3.00
2022-12-18T21:04:59.929Z,-2.90
2022-12-18T21:07:04.895Z,-3.10
2022-12-18T21:09:10.241Z,-3.10
2022-12-18T21:11:30.700Z,-3.30
2022-12-18T21:13:35.801Z,-3.20
2022-12-18T21:15:40.839Z,-3.20
2022-12-18T21:17:46.224Z,-3.20
2022-12-18T21:19:51.224Z,-3.30
2022-12-18T21:22:00.854Z,-3.20
2022-12-18T21:24:06.543Z,-3.10
2022-12-18T21:26:22.706Z,-3.20
2022-12-18T21:28:28.370Z,-3.00
2022-12-18T21:30:33.487Z,-2.90
2022-12-18T21:32:38.818Z,-3.00
2022-12-18T21:34:47.966Z,-3.00
2022-12-18T21:36:53.610Z,-3.10
2022-12-18T21:39:02.456Z,-3.00
2022-12-18T21:41:10.291Z,-3.10
2022-12-18T21:43:28.362Z,-3.20
2022-12-18T21:45:33.192Z,-3.10
2022-12-18T21:47:38.591Z,-3.00
2022-12-18T21:49:43.963Z,-2.90
2022-12-18T21:51:50.613Z,-2.90
2022-12-18T21:53:56.121Z,-2.90
2022-12-18T21:56:04.369Z,-3.00
2022-12-18T21:58:09.360Z,-3.00
2022-12-18T22:00:19.094Z,-2.90
2022-12-18T22:02:26.804Z,-3.00
2022-12-18T22:04:32.158Z,-3.00
2022-12-18T22:06:38.315Z,-3.00
2022-12-18T22:08:43.829Z,-3.00
2022-12-18T22:10:49.486Z,-3.00
2022-12-18T22:12:57.089Z,-3.00
2022-12-18T22:15:02.087Z,-3.10
2022-12-18T22:17:07.139Z,-3.20
2022-12-18T22:19:14.170Z,-3.10
2022-12-18T22:21:29.562Z,-3.00
2022-12-18T22:23:35.486Z,-3.00
2022-12-18T22:25:40.663Z,-3.00
2022-12-18T22:28:06.300Z,-2.80
2022-12-18T22:30:14.814Z,-2.90
2022-12-18T22:32:28.973Z,-2.90
2022-12-18T22:34:38.577Z,-3.00
2022-12-18T22:36:47.398Z,-3.00
2022-12-18T22:38:52.413Z,-3.00
2022-12-18T22:40:59.273Z,-3.00
2022-12-18T22:43:04.420Z,-3.00
2022-12-18T22:45:13.823Z,-3.10
2022-12-18T22:47:18.894Z,-3.10
2022-12-18T22:49:26.606Z,-3.00
2022-12-18T22:51:31.578Z,-3.10
2022-12-18T22:53:36.708Z,-2.80
2022-12-18T22:55:41.720Z,-2.60
2022-12-18T22:57:48.618Z,-2.70
2022-12-18T22:59:56.517Z,-2.80
2022-12-18T23:02:04.340Z,-2.80
2022-12-18T23:04:09.555Z,-2.90
2022-12-18T23:06:14.631Z,-2.90
2022-12-18T23:08:19.633Z,-2.80
2022-12-18T23:10:25.047Z,-2.80
2022-12-18T23:12:30.443Z,-2.80
2022-12-18T23:14:35.967Z,-2.80
2022-12-18T23:16:41.052Z,-2.70
2022-12-18T23:18:50.967Z,-2.60
2022-12-18T23:20:56.359Z,-2.60
2022-12-18T23:23:02.898Z,-2.70
2022-12-18T23:25:09.666Z,-2.80
2022-12-18T23:27:14.924Z,-2.80
2022-12-18T23:29:19.971Z,-2.90
2022-12-18T23:31:30.754Z,-2.80
2022-12-18T23:33:36.304Z,-2.90
2022-12-18T23:35:44.197Z,-2.80
2022-12-18T23:37:58.765Z,-2.70
2022-12-18T23:40:05.228Z,-2.70
2022-12-18T23:42:10.847Z,-2.80
2022-12-18T23:44:19.764Z,-2.80
2022-12-18T23:46:27.850Z,-2.80
2022-12-18T23:48:34.808Z,-2.80
2022-12-18T23:50:40.497Z,-2.80
2022-12-18T23:52:48.103Z,-2.70
2022-12-18T23:54:53.317Z,-2.60
2022-12-18T23:56:58.331Z,-2.50
2022-12-18T23:59:03.398Z,-2.50
